createdAt,value
2018-08-08T00:00:39.279Z,0.00
2018-08-08T00:01:39.294Z,0.00
2018-08-08T00:02:39.325Z,0.00
2018-08-08T00:03:39.358Z,0.00
2018-08-08T00:04:39.380Z,0.00
2018-08-08T00:05:39.416Z,0.00
2018-08-08T00:06:39.436Z,0.00
2018-08-08T00:07:39.466Z,0.00
2018-08-08T00:08:39.493Z,0.00
2018-08-08T00:09:39.523Z,0.00
2018-08-08T00:10:39.556Z,0.00
2018-08-08T00:12:39.605Z,0.00
2018-08-08T00:13:39.634Z,0.00
2018-08-08T00:14:39.664Z,0.00
2018-08-08T00:15:39.695Z,0.00
2018-08-08T00:16:39.717Z,0.00
2018-08-08T00:17:39.743Z,0.00
2018-08-08T00:18:39.773Z,0.00
2018-08-08T00:19:39.797Z,0.00
2018-08-08T00:20:39.826Z,0.00
2018-08-08T00:21:39.858Z,0.00
2018-08-08T00:22:39.884Z,0.00
2018-08-08T00:23:39.914Z,0.00
2018-08-08T00:24:39.958Z,0.00
2018-08-08T00:25:39.975Z,0.00
2018-08-08T00:26:39.998Z,0.00
2018-08-08T00:27:40.030Z,0.00
2018-08-08T00:28:40.056Z,0.00
2018-08-08T00:29:40.114Z,0.00
2018-08-08T00:30:40.111Z,0.00
2018-08-08T00:31:40.220Z,0.00
2018-08-08T00:32:40.180Z,0.00
2018-08-08T00:33:40.195Z,0.00
2018-08-08T00:34:40.223Z,0.00
2018-08-08T00:36:40.281Z,0.00
2018-08-08T00:37:40.303Z,0.00
2018-08-08T00:38:40.332Z,0.00
2018-08-08T00:39:40.367Z,0.00
2018-08-08T00:40:40.393Z,0.00
2018-08-08T00:41:40.419Z,0.00
2018-08-08T00:43:01.474Z,0.00
2018-08-08T00:43:40.469Z,0.00
2018-08-08T00:44:40.504Z,0.00
2018-08-08T00:45:40.542Z,0.00
2018-08-08T00:46:40.564Z,0.00
2018-08-08T00:47:40.584Z,0.00
2018-08-08T00:48:40.613Z,0.00
2018-08-08T00:49:40.637Z,0.00
2018-08-08T00:50:40.691Z,0.00
2018-08-08T00:51:41.174Z,0.00
2018-08-08T00:52:40.732Z,0.00
2018-08-08T00:53:41.180Z,0.00
2018-08-08T00:54:40.779Z,0.00
2018-08-08T00:55:41.182Z,0.00
2018-08-08T00:56:40.842Z,0.00
2018-08-08T00:57:40.871Z,0.00
2018-08-08T00:58:41.043Z,0.00
2018-08-08T00:59:40.929Z,0.00
2018-08-08T01:01:40.984Z,0.00
2018-08-08T01:02:41.008Z,0.00
2018-08-08T01:03:41.041Z,0.00
2018-08-08T01:04:41.063Z,0.00
2018-08-08T01:05:41.104Z,0.00
2018-08-08T01:06:41.229Z,0.00
2018-08-08T01:07:41.151Z,0.00
2018-08-08T01:08:41.310Z,0.00
2018-08-08T01:09:41.205Z,0.00
2018-08-08T01:10:41.230Z,0.00
2018-08-08T01:11:41.260Z,0.00
2018-08-08T01:12:41.285Z,0.00
2018-08-08T01:13:41.311Z,0.00
2018-08-08T01:14:41.343Z,0.00
2018-08-08T01:15:41.368Z,0.00
2018-08-08T01:16:41.395Z,0.00
2018-08-08T01:17:41.423Z,0.00
2018-08-08T01:18:41.451Z,0.00
2018-08-08T01:19:41.476Z,0.00
2018-08-08T01:20:41.512Z,0.00
2018-08-08T01:21:41.530Z,0.00
2018-08-08T01:22:41.564Z,0.00
2018-08-08T01:23:41.595Z,0.00
2018-08-08T01:24:41.697Z,0.00
2018-08-08T01:25:41.647Z,0.00
2018-08-08T01:26:41.671Z,0.00
2018-08-08T01:27:41.703Z,0.00
2018-08-08T01:28:41.753Z,0.00
2018-08-08T01:29:41.771Z,0.00
2018-08-08T01:30:41.787Z,0.00
2018-08-08T01:31:41.812Z,0.00
2018-08-08T01:32:41.839Z,0.00
2018-08-08T01:33:41.866Z,0.00
2018-08-08T01:34:41.916Z,0.00
2018-08-08T01:36:41.958Z,0.00
2018-08-08T01:37:41.991Z,0.00
2018-08-08T01:38:42.004Z,0.00
2018-08-08T01:39:42.035Z,0.00
2018-08-08T01:40:42.067Z,0.00
2018-08-08T01:41:42.096Z,0.00
2018-08-08T01:42:42.120Z,0.00
2018-08-08T01:43:42.151Z,0.00
2018-08-08T01:44:42.177Z,0.00
2018-08-08T01:45:42.260Z,0.00
2018-08-08T01:46:42.238Z,0.00
2018-08-08T01:47:42.267Z,0.00
2018-08-08T01:48:42.280Z,0.00
2018-08-08T01:49:42.312Z,0.00
2018-08-08T01:50:42.343Z,0.00
2018-08-08T01:51:42.369Z,0.00
2018-08-08T01:52:42.390Z,0.00
2018-08-08T01:53:42.425Z,0.00
2018-08-08T01:54:42.493Z,0.00
2018-08-08T01:55:42.480Z,0.00
2018-08-08T01:56:42.509Z,0.00
2018-08-08T01:57:42.528Z,0.00
2018-08-08T01:58:42.560Z,0.00
2018-08-08T02:00:42.617Z,0.00
2018-08-08T02:01:42.674Z,0.00
2018-08-08T02:02:42.678Z,0.00
2018-08-08T02:03:42.715Z,0.00
2018-08-08T02:04:42.732Z,0.00
2018-08-08T02:05:42.756Z,0.00
2018-08-08T02:06:42.786Z,0.00
2018-08-08T02:07:42.814Z,0.00
2018-08-08T02:08:42.839Z,0.00
2018-08-08T02:09:42.866Z,0.00
2018-08-08T02:10:42.960Z,0.00
2018-08-08T02:11:44.928Z,0.00
2018-08-08T02:12:42.948Z,0.00
2018-08-08T02:13:43.014Z,0.00
2018-08-08T02:14:42.998Z,0.00
2018-08-08T02:15:43.030Z,0.00
2018-08-08T02:16:43.076Z,0.00
2018-08-08T02:17:43.082Z,0.00
2018-08-08T02:18:43.108Z,0.00
2018-08-08T02:19:43.141Z,0.00
2018-08-08T02:20:43.171Z,0.00
2018-08-08T02:21:43.202Z,0.00
2018-08-08T02:22:43.224Z,0.00
2018-08-08T02:23:43.261Z,0.00
2018-08-08T02:24:43.272Z,0.00
2018-08-08T02:25:43.306Z,0.00
2018-08-08T02:26:43.337Z,0.00
2018-08-08T02:27:43.358Z,0.00
2018-08-08T02:28:43.422Z,0.00
2018-08-08T02:30:43.449Z,0.00
2018-08-08T02:31:43.477Z,0.00
2018-08-08T02:32:43.503Z,0.00
2018-08-08T02:33:43.522Z,0.00
2018-08-08T02:34:43.557Z,0.00
2018-08-08T02:35:43.580Z,0.00
2018-08-08T02:36:43.611Z,0.00
2018-08-08T02:37:43.658Z,0.00
2018-08-08T02:38:43.666Z,0.00
2018-08-08T02:39:43.836Z,0.00
2018-08-08T02:40:43.718Z,0.00
2018-08-08T02:41:43.744Z,0.00
2018-08-08T02:42:43.779Z,0.00
2018-08-08T02:43:43.803Z,0.00
2018-08-08T02:44:43.828Z,0.00
2018-08-08T02:45:43.853Z,0.00
2018-08-08T02:46:43.897Z,0.00
2018-08-08T02:48:43.958Z,0.00
2018-08-08T02:50:43.994Z,0.00
2018-08-08T02:51:44.020Z,0.00
2018-08-08T02:52:44.046Z,0.00
2018-08-08T02:53:44.085Z,0.00
2018-08-08T02:54:44.099Z,0.00
2018-08-08T02:55:44.133Z,0.00
2018-08-08T02:56:44.161Z,0.00
2018-08-08T02:57:44.189Z,0.00
2018-08-08T02:58:44.214Z,0.00
2018-08-08T02:59:44.257Z,0.00
2018-08-08T03:00:44.274Z,0.00
2018-08-08T03:01:44.302Z,0.00
2018-08-08T03:02:44.330Z,0.00
2018-08-08T03:03:44.353Z,0.00
2018-08-08T03:04:44.376Z,0.00
2018-08-08T03:05:44.399Z,0.00
2018-08-08T03:06:44.440Z,0.00
2018-08-08T03:07:44.460Z,0.00
2018-08-08T03:08:44.488Z,0.00
2018-08-08T03:09:44.513Z,0.00
2018-08-08T03:10:44.537Z,0.00
2018-08-08T03:11:44.571Z,0.00
2018-08-08T03:12:44.595Z,0.00
2018-08-08T03:13:44.638Z,0.00
2018-08-08T03:14:44.649Z,0.00
2018-08-08T03:15:44.687Z,0.00
2018-08-08T03:16:44.704Z,0.00
2018-08-08T03:17:44.746Z,0.00
2018-08-08T03:18:44.765Z,0.00
2018-08-08T03:19:44.889Z,0.00
2018-08-08T03:20:44.812Z,0.00
2018-08-08T03:21:44.838Z,0.00
2018-08-08T03:22:44.872Z,0.00
2018-08-08T03:23:44.898Z,0.00
2018-08-08T03:24:44.921Z,0.00
2018-08-08T03:25:44.943Z,0.00
2018-08-08T03:26:44.978Z,0.00
2018-08-08T03:27:45.007Z,0.00
2018-08-08T03:28:45.033Z,0.00
2018-08-08T03:29:45.062Z,0.00
2018-08-08T03:30:45.084Z,0.00
2018-08-08T03:31:45.114Z,0.00
2018-08-08T03:32:45.138Z,0.00
2018-08-08T03:34:45.309Z,0.00
2018-08-08T03:35:45.219Z,0.00
2018-08-08T03:36:45.253Z,0.00
2018-08-08T03:37:45.282Z,0.00
2018-08-08T03:38:45.305Z,0.00
2018-08-08T03:39:45.331Z,0.00
2018-08-08T03:40:45.348Z,0.00
2018-08-08T03:41:45.384Z,0.00
2018-08-08T03:42:45.418Z,0.00
2018-08-08T03:43:45.441Z,0.00
2018-08-08T03:44:45.473Z,0.00
2018-08-08T03:45:45.486Z,0.00
2018-08-08T03:46:45.519Z,0.00
2018-08-08T03:47:45.549Z,0.00
2018-08-08T03:48:45.565Z,0.00
2018-08-08T03:49:45.605Z,0.00
2018-08-08T03:50:45.633Z,0.00
2018-08-08T03:51:45.658Z,0.00
2018-08-08T03:52:45.679Z,0.00
2018-08-08T03:53:45.705Z,0.00
2018-08-08T03:54:45.761Z,0.00
2018-08-08T03:55:45.767Z,4.00
2018-08-08T03:56:45.786Z,0.00
2018-08-08T03:57:45.879Z,0.00
2018-08-08T03:58:45.848Z,0.00
2018-08-08T03:59:45.873Z,0.00
2018-08-08T04:00:45.899Z,4.00
2018-08-08T04:02:46.069Z,4.00
2018-08-08T04:03:45.980Z,4.00
2018-08-08T04:04:46.009Z,0.00
2018-08-08T04:05:46.096Z,4.00
2018-08-08T04:06:46.143Z,4.00
2018-08-08T04:07:46.177Z,4.00
2018-08-08T04:08:46.118Z,4.00
2018-08-08T04:09:46.206Z,4.00
2018-08-08T04:10:46.173Z,8.00
2018-08-08T04:11:46.202Z,8.00
2018-08-08T04:12:46.230Z,4.00
2018-08-08T04:13:46.253Z,4.00
2018-08-08T04:14:46.276Z,4.00
2018-08-08T04:15:46.307Z,4.00
2018-08-08T04:16:46.335Z,4.00
2018-08-08T04:17:46.366Z,4.00
2018-08-08T04:18:46.385Z,4.00
2018-08-08T04:19:46.416Z,4.00
2018-08-08T04:20:46.454Z,4.00
2018-08-08T04:21:46.464Z,4.00
2018-08-08T04:22:46.488Z,4.00
2018-08-08T04:23:46.517Z,8.00
2018-08-08T04:24:46.548Z,8.00
2018-08-08T04:25:46.582Z,8.00
2018-08-08T04:26:46.613Z,4.00
2018-08-08T04:27:46.628Z,8.00
2018-08-08T04:28:46.655Z,8.00
2018-08-08T04:29:46.696Z,8.00
2018-08-08T04:30:46.721Z,8.00
2018-08-08T04:31:46.742Z,8.00
2018-08-08T04:32:46.752Z,12.00
2018-08-08T04:33:46.784Z,8.00
2018-08-08T04:34:46.818Z,8.00
2018-08-08T04:35:46.846Z,12.00
2018-08-08T04:36:46.872Z,8.00
2018-08-08T04:37:46.917Z,8.00
2018-08-08T04:38:46.953Z,12.00
2018-08-08T04:39:46.950Z,12.00
2018-08-08T04:40:46.980Z,16.00
2018-08-08T04:41:47.003Z,16.00
2018-08-08T04:42:47.031Z,12.00
2018-08-08T04:43:47.057Z,12.00
2018-08-08T04:44:47.091Z,16.00
2018-08-08T04:45:47.112Z,16.00
2018-08-08T04:46:47.140Z,16.00
2018-08-08T04:47:47.165Z,20.00
2018-08-08T04:48:47.195Z,20.00
2018-08-08T04:49:47.219Z,24.00
2018-08-08T04:50:47.259Z,24.00
2018-08-08T04:51:47.277Z,24.00
2018-08-08T04:52:47.301Z,24.00
2018-08-08T04:53:47.329Z,20.00
2018-08-08T04:54:47.359Z,24.00
2018-08-08T04:55:47.387Z,28.00
2018-08-08T04:56:47.409Z,28.00
2018-08-08T04:57:47.439Z,28.00
2018-08-08T04:58:47.465Z,32.00
2018-08-08T04:59:47.509Z,36.00
2018-08-08T05:00:47.522Z,32.00
2018-08-08T05:01:47.543Z,32.00
2018-08-08T05:02:47.571Z,32.00
2018-08-08T05:03:47.597Z,32.00
2018-08-08T05:04:47.632Z,32.00
2018-08-08T05:05:47.655Z,28.00
2018-08-08T05:06:47.688Z,28.00
2018-08-08T05:07:47.710Z,28.00
2018-08-08T05:08:47.729Z,28.00
2018-08-08T05:09:47.759Z,28.00
2018-08-08T05:10:47.784Z,28.00
2018-08-08T05:11:47.814Z,36.00
2018-08-08T05:12:47.843Z,36.00
2018-08-08T05:13:47.883Z,32.00
2018-08-08T05:14:47.895Z,32.00
2018-08-08T05:15:47.923Z,36.00
2018-08-08T05:16:47.961Z,40.00
2018-08-08T05:17:47.974Z,48.00
2018-08-08T05:18:48.008Z,56.00
2018-08-08T05:19:48.030Z,64.00
2018-08-08T05:20:48.066Z,84.00
2018-08-08T05:21:48.091Z,80.00
2018-08-08T05:22:48.116Z,64.00
2018-08-08T05:23:48.146Z,60.00
2018-08-08T05:24:48.165Z,48.00
2018-08-08T05:25:48.194Z,48.00
2018-08-08T05:26:48.216Z,48.00
2018-08-08T05:27:48.248Z,52.00
2018-08-08T05:28:48.272Z,48.00
2018-08-08T05:29:48.298Z,44.00
2018-08-08T05:30:48.330Z,44.00
2018-08-08T05:31:48.373Z,48.00
2018-08-08T05:32:48.384Z,48.00
2018-08-08T05:33:48.412Z,48.00
2018-08-08T05:34:48.430Z,48.00
2018-08-08T05:35:48.465Z,48.00
2018-08-08T05:36:48.499Z,52.00
2018-08-08T05:37:48.517Z,56.00
2018-08-08T05:38:48.540Z,64.00
2018-08-08T05:39:48.573Z,68.00
2018-08-08T05:40:48.603Z,68.00
2018-08-08T05:41:48.622Z,60.00
2018-08-08T05:42:48.660Z,56.00
2018-08-08T05:43:48.694Z,52.00
2018-08-08T05:44:48.709Z,52.00
2018-08-08T05:45:48.738Z,52.00
2018-08-08T05:46:48.784Z,52.00
2018-08-08T05:47:48.798Z,52.00
2018-08-08T05:48:48.817Z,52.00
2018-08-08T05:49:48.848Z,52.00
2018-08-08T05:50:48.869Z,52.00
2018-08-08T05:51:48.904Z,52.00
2018-08-08T05:52:48.936Z,52.00
2018-08-08T05:53:48.972Z,52.00
2018-08-08T05:54:49.014Z,60.00
2018-08-08T05:55:49.016Z,64.00
2018-08-08T05:56:49.034Z,72.00
2018-08-08T05:57:49.073Z,84.00
2018-08-08T05:58:49.090Z,88.00
2018-08-08T05:59:49.118Z,84.00
2018-08-08T06:00:49.149Z,92.00
2018-08-08T06:01:49.168Z,104.00
2018-08-08T06:02:49.228Z,108.00
2018-08-08T06:03:49.235Z,104.00
2018-08-08T06:04:49.255Z,104.00
2018-08-08T06:05:49.281Z,96.00
2018-08-08T06:06:49.306Z,96.00
2018-08-08T06:07:49.338Z,88.00
2018-08-08T06:08:49.362Z,84.00
2018-08-08T06:09:49.389Z,76.00
2018-08-08T06:10:49.422Z,76.00
2018-08-08T06:11:49.445Z,76.00
2018-08-08T06:12:49.465Z,76.00
2018-08-08T06:13:49.495Z,76.00
2018-08-08T06:14:49.523Z,80.00
2018-08-08T06:15:49.553Z,80.00
2018-08-08T06:16:49.589Z,84.00
2018-08-08T06:17:49.606Z,88.00
2018-08-08T06:18:49.630Z,84.00
2018-08-08T06:19:49.703Z,80.00
2018-08-08T06:20:49.693Z,80.00
2018-08-08T06:21:49.716Z,76.00
2018-08-08T06:22:49.758Z,76.00
2018-08-08T06:23:49.764Z,76.00
2018-08-08T06:24:49.828Z,80.00
2018-08-08T06:25:49.827Z,80.00
2018-08-08T06:26:50.053Z,92.00
2018-08-08T06:27:49.882Z,100.00
2018-08-08T06:28:49.907Z,104.00
2018-08-08T06:29:49.934Z,104.00
2018-08-08T06:30:49.968Z,108.00
2018-08-08T06:31:49.986Z,108.00
2018-08-08T06:32:50.023Z,112.00
2018-08-08T06:33:50.112Z,124.00
2018-08-08T06:34:50.080Z,120.00
2018-08-08T06:35:50.100Z,124.00
2018-08-08T06:36:50.131Z,124.00
2018-08-08T06:37:50.189Z,128.00
2018-08-08T06:38:50.176Z,136.00
2018-08-08T06:39:50.213Z,148.00
2018-08-08T06:40:50.236Z,164.00
2018-08-08T06:41:50.265Z,172.00
2018-08-08T06:42:50.296Z,176.00
2018-08-08T06:43:50.419Z,184.00
2018-08-08T06:44:50.345Z,196.00
2018-08-08T06:45:50.403Z,196.00
2018-08-08T06:46:50.410Z,200.00
2018-08-08T06:47:50.436Z,216.00
2018-08-08T06:48:50.465Z,232.00
2018-08-08T06:49:50.525Z,236.00
2018-08-08T06:50:50.513Z,256.00
2018-08-08T06:51:50.551Z,264.00
2018-08-08T06:52:50.560Z,280.00
2018-08-08T06:53:50.604Z,284.00
2018-08-08T06:54:50.629Z,180.00
2018-08-08T06:55:50.649Z,152.00
2018-08-08T06:56:50.678Z,140.00
2018-08-08T06:57:50.704Z,136.00
2018-08-08T06:58:50.732Z,152.00
2018-08-08T06:59:50.910Z,168.00
2018-08-08T07:00:50.796Z,156.00
2018-08-08T07:01:50.814Z,148.00
2018-08-08T07:02:50.852Z,148.00
2018-08-08T07:03:50.878Z,168.00
2018-08-08T07:04:50.901Z,216.00
2018-08-08T07:05:50.937Z,236.00
2018-08-08T07:06:50.949Z,256.00
2018-08-08T07:07:50.979Z,376.00
2018-08-08T07:08:51.017Z,416.00
2018-08-08T07:09:51.046Z,380.00
2018-08-08T07:10:51.136Z,432.00
2018-08-08T07:11:51.094Z,428.00
2018-08-08T07:12:51.124Z,436.00
2018-08-08T07:13:51.185Z,420.00
2018-08-08T07:14:51.176Z,420.00
2018-08-08T07:15:51.199Z,404.00
2018-08-08T07:16:51.233Z,344.00
2018-08-08T07:17:51.261Z,256.00
2018-08-08T07:18:51.283Z,268.00
2018-08-08T07:19:51.341Z,284.00
2018-08-08T07:20:51.333Z,296.00
2018-08-08T07:21:51.372Z,304.00
2018-08-08T07:22:51.400Z,292.00
2018-08-08T07:23:51.434Z,284.00
2018-08-08T07:24:51.452Z,288.00
2018-08-08T07:25:51.477Z,284.00
2018-08-08T07:26:51.509Z,352.00
2018-08-08T07:27:51.533Z,368.00
2018-08-08T07:28:51.565Z,356.00
2018-08-08T07:29:51.590Z,360.00
2018-08-08T07:30:51.635Z,340.00
2018-08-08T07:31:51.645Z,312.00
2018-08-08T07:32:51.674Z,312.00
2018-08-08T07:33:51.700Z,300.00
2018-08-08T07:34:51.727Z,304.00
2018-08-08T07:35:51.752Z,300.00
2018-08-08T07:36:51.789Z,300.00
2018-08-08T07:37:51.816Z,292.00
2018-08-08T07:38:51.832Z,304.00
2018-08-08T07:39:51.883Z,312.00
2018-08-08T07:40:51.908Z,316.00
2018-08-08T07:41:51.920Z,328.00
2018-08-08T07:42:51.953Z,332.00
2018-08-08T07:43:51.985Z,336.00
2018-08-08T07:44:52.003Z,340.00
2018-08-08T07:45:52.036Z,344.00
2018-08-08T07:46:52.079Z,344.00
2018-08-08T07:47:52.085Z,352.00
2018-08-08T07:48:52.115Z,360.00
2018-08-08T07:49:52.144Z,364.00
2018-08-08T07:50:52.173Z,376.00
2018-08-08T07:51:52.195Z,384.00
2018-08-08T07:52:52.268Z,392.00
2018-08-08T07:53:52.262Z,384.00
2018-08-08T07:54:52.280Z,392.00
2018-08-08T07:55:52.320Z,392.00
2018-08-08T07:56:52.346Z,384.00
2018-08-08T07:57:52.401Z,384.00
2018-08-08T07:58:52.407Z,400.00
2018-08-08T07:59:52.434Z,408.00
2018-08-08T08:00:52.454Z,420.00
2018-08-08T08:01:52.483Z,440.00
2018-08-08T08:02:52.513Z,428.00
2018-08-08T08:03:52.599Z,472.00
2018-08-08T08:04:52.578Z,504.00
2018-08-08T08:05:52.595Z,500.00
2018-08-08T08:06:52.627Z,476.00
2018-08-08T08:07:52.644Z,492.00
2018-08-08T08:08:52.674Z,484.00
2018-08-08T08:09:52.702Z,440.00
2018-08-08T08:10:52.736Z,424.00
2018-08-08T08:11:52.768Z,460.00
2018-08-08T08:12:52.865Z,388.00
2018-08-08T08:13:52.826Z,404.00
2018-08-08T08:14:52.857Z,436.00
2018-08-08T08:15:52.872Z,448.00
2018-08-08T08:16:52.905Z,516.00
2018-08-08T08:17:52.924Z,404.00
2018-08-08T08:18:52.958Z,408.00
2018-08-08T08:19:52.986Z,404.00
2018-08-08T08:20:53.012Z,424.00
2018-08-08T08:21:53.040Z,344.00
2018-08-08T08:22:53.068Z,384.00
2018-08-08T08:23:53.105Z,368.00
2018-08-08T08:24:53.133Z,392.00
2018-08-08T08:25:53.156Z,396.00
2018-08-08T08:26:53.176Z,388.00
2018-08-08T08:27:53.208Z,384.00
2018-08-08T08:28:53.236Z,372.00
2018-08-08T08:29:53.326Z,360.00
2018-08-08T08:30:53.296Z,344.00
2018-08-08T08:31:53.322Z,348.00
2018-08-08T08:32:53.357Z,344.00
2018-08-08T08:33:53.380Z,348.00
2018-08-08T08:34:53.415Z,340.00
2018-08-08T08:35:53.463Z,336.00
2018-08-08T08:36:53.474Z,336.00
2018-08-08T08:37:53.518Z,340.00
2018-08-08T08:38:53.528Z,332.00
2018-08-08T08:39:53.566Z,348.00
2018-08-08T08:40:53.591Z,336.00
2018-08-08T08:41:53.619Z,344.00
2018-08-08T08:42:53.637Z,356.00
2018-08-08T08:43:53.668Z,360.00
2018-08-08T08:44:53.694Z,364.00
2018-08-08T08:45:53.720Z,360.00
2018-08-08T08:46:53.753Z,368.00
2018-08-08T08:47:53.783Z,324.00
2018-08-08T08:48:53.805Z,356.00
2018-08-08T08:49:53.840Z,380.00
2018-08-08T08:50:53.863Z,356.00
2018-08-08T08:51:53.886Z,372.00
2018-08-08T08:52:53.922Z,376.00
2018-08-08T08:53:53.947Z,392.00
2018-08-08T08:54:53.991Z,384.00
2018-08-08T08:55:54.012Z,396.00
2018-08-08T08:56:54.035Z,408.00
2018-08-08T08:57:54.068Z,404.00
2018-08-08T08:58:54.088Z,412.00
2018-08-08T08:59:54.124Z,416.00
2018-08-08T09:00:54.151Z,408.00
2018-08-08T09:01:54.180Z,420.00
2018-08-08T09:02:54.218Z,428.00
2018-08-08T09:03:54.240Z,444.00
2018-08-08T09:04:54.262Z,460.00
2018-08-08T09:05:54.320Z,472.00
2018-08-08T09:06:54.325Z,456.00
2018-08-08T09:07:54.359Z,428.00
2018-08-08T09:08:54.390Z,420.00
2018-08-08T09:09:54.453Z,428.00
2018-08-08T09:10:54.438Z,436.00
2018-08-08T09:11:54.466Z,440.00
2018-08-08T09:12:54.501Z,440.00
2018-08-08T09:13:54.526Z,468.00
2018-08-08T09:14:54.587Z,464.00
2018-08-08T09:15:54.588Z,460.00
2018-08-08T09:16:54.712Z,468.00
2018-08-08T09:17:54.640Z,460.00
2018-08-08T09:18:54.674Z,468.00
2018-08-08T09:19:54.696Z,464.00
2018-08-08T09:20:54.740Z,464.00
2018-08-08T09:21:54.749Z,464.00
2018-08-08T09:22:54.785Z,476.00
2018-08-08T09:23:54.811Z,472.00
2018-08-08T09:24:54.842Z,472.00
2018-08-08T09:25:54.874Z,484.00
2018-08-08T09:26:54.901Z,496.00
2018-08-08T09:27:54.937Z,484.00
2018-08-08T09:28:54.963Z,460.00
2018-08-08T09:29:54.985Z,444.00
2018-08-08T09:30:55.084Z,448.00
2018-08-08T09:31:55.070Z,472.00
2018-08-08T09:32:55.075Z,476.00
2018-08-08T09:33:55.104Z,480.00
2018-08-08T09:34:55.158Z,480.00
2018-08-08T09:35:55.161Z,412.00
2018-08-08T09:36:55.190Z,420.00
2018-08-08T09:37:55.257Z,404.00
2018-08-08T09:38:55.243Z,420.00
2018-08-08T09:39:55.273Z,400.00
2018-08-08T09:40:55.308Z,444.00
2018-08-08T09:41:55.332Z,476.00
2018-08-08T09:42:55.365Z,464.00
2018-08-08T09:43:55.391Z,460.00
2018-08-08T09:45:55.452Z,452.00
2018-08-08T09:46:55.500Z,452.00
2018-08-08T09:47:55.506Z,452.00
2018-08-08T09:48:55.544Z,468.00
2018-08-08T09:49:55.570Z,476.00
2018-08-08T09:50:55.597Z,492.00
2018-08-08T09:51:55.644Z,500.00
2018-08-08T09:52:55.668Z,492.00
2018-08-08T09:53:55.684Z,500.00
2018-08-08T09:54:55.720Z,488.00
2018-08-08T09:55:55.751Z,492.00
2018-08-08T09:56:55.770Z,492.00
2018-08-08T09:57:55.805Z,492.00
2018-08-08T09:58:55.833Z,516.00
2018-08-08T09:59:55.858Z,496.00
2018-08-08T10:00:55.893Z,532.00
2018-08-08T10:01:55.944Z,516.00
2018-08-08T10:02:55.952Z,520.00
2018-08-08T10:03:56.056Z,544.00
2018-08-08T10:04:56.014Z,544.00
2018-08-08T10:05:56.037Z,600.00
2018-08-08T10:06:56.082Z,616.00
2018-08-08T10:07:56.107Z,524.00
2018-08-08T10:08:56.175Z,508.00
2018-08-08T10:09:56.161Z,524.00
2018-08-08T10:10:56.193Z,516.00
2018-08-08T10:11:56.221Z,520.00
2018-08-08T10:12:56.256Z,512.00
2018-08-08T10:13:56.276Z,544.00
2018-08-08T10:14:56.310Z,560.00
2018-08-08T10:15:56.337Z,552.00
2018-08-08T10:16:56.371Z,600.00
2018-08-08T10:17:56.411Z,672.00
2018-08-08T10:18:56.439Z,728.00
2018-08-08T10:19:56.453Z,784.00
2018-08-08T10:20:56.519Z,804.00
2018-08-08T10:21:56.520Z,844.00
2018-08-08T10:22:56.541Z,844.00
2018-08-08T10:23:56.565Z,832.00
2018-08-08T10:24:56.609Z,848.00
2018-08-08T10:25:56.632Z,896.00
2018-08-08T10:26:56.669Z,836.00
2018-08-08T10:27:56.684Z,820.00
2018-08-08T10:28:56.721Z,804.00
2018-08-08T10:29:56.743Z,756.00
2018-08-08T10:30:56.777Z,760.00
2018-08-08T10:31:56.812Z,744.00
2018-08-08T10:32:56.836Z,716.00
2018-08-08T10:33:56.869Z,668.00
2018-08-08T10:34:56.908Z,648.00
2018-08-08T10:35:56.926Z,764.00
2018-08-08T10:36:56.959Z,728.00
2018-08-08T10:37:56.989Z,688.00
2018-08-08T10:38:57.137Z,720.00
2018-08-08T10:39:57.052Z,760.00
2018-08-08T10:40:57.083Z,736.00
2018-08-08T10:41:57.109Z,784.00
2018-08-08T10:42:57.154Z,776.00
2018-08-08T10:43:57.157Z,824.00
2018-08-08T10:44:57.193Z,844.00
2018-08-08T10:45:57.222Z,804.00
2018-08-08T10:46:57.256Z,816.00
2018-08-08T10:47:57.279Z,840.00
2018-08-08T10:48:57.311Z,872.00
2018-08-08T10:49:57.432Z,972.00
2018-08-08T10:50:57.365Z,880.00
2018-08-08T10:51:57.402Z,912.00
2018-08-08T10:52:57.442Z,928.00
2018-08-08T10:53:57.466Z,944.00
2018-08-08T10:54:57.492Z,980.00
2018-08-08T10:55:57.592Z,996.00
2018-08-08T10:56:57.552Z,1104.00
2018-08-08T10:57:57.580Z,1108.00
2018-08-08T10:58:57.617Z,1152.00
2018-08-08T10:59:57.644Z,1012.00
2018-08-08T11:00:57.673Z,980.00
2018-08-08T11:01:57.694Z,984.00
2018-08-08T11:02:57.736Z,1028.00
2018-08-08T11:03:57.778Z,1040.00
2018-08-08T11:04:57.813Z,1052.00
2018-08-08T11:05:57.819Z,1104.00
2018-08-08T11:06:57.908Z,1120.00
2018-08-08T11:07:57.892Z,1076.00
2018-08-08T11:08:57.924Z,1028.00
2018-08-08T11:09:57.941Z,1008.00
2018-08-08T11:10:57.970Z,1048.00
2018-08-08T11:11:58.002Z,960.00
2018-08-08T11:12:58.037Z,976.00
2018-08-08T11:13:58.062Z,1004.00
2018-08-08T11:14:58.093Z,1080.00
2018-08-08T11:15:58.130Z,1132.00
2018-08-08T11:16:58.161Z,1220.00
2018-08-08T11:17:58.191Z,1144.00
2018-08-08T11:18:58.207Z,1196.00
2018-08-08T11:19:58.253Z,1148.00
2018-08-08T11:20:58.358Z,1136.00
2018-08-08T11:21:58.300Z,1128.00
2018-08-08T11:22:58.330Z,1136.00
2018-08-08T11:23:58.503Z,1192.00
2018-08-08T11:24:58.403Z,1216.00
2018-08-08T11:25:58.427Z,992.00
2018-08-08T11:26:58.454Z,956.00
2018-08-08T11:27:58.479Z,1000.00
2018-08-08T11:28:58.512Z,1112.00
2018-08-08T11:29:58.567Z,1104.00
2018-08-08T11:30:58.574Z,1216.00
2018-08-08T11:31:58.693Z,1108.00
2018-08-08T11:32:58.644Z,1116.00
2018-08-08T11:33:58.662Z,1056.00
2018-08-08T11:34:58.694Z,1132.00
2018-08-08T11:35:58.733Z,1000.00
2018-08-08T11:36:58.857Z,956.00
2018-08-08T11:37:58.783Z,952.00
2018-08-08T11:38:58.817Z,1076.00
2018-08-08T11:39:58.847Z,888.00
2018-08-08T11:40:58.876Z,956.00
2018-08-08T11:41:58.926Z,1000.00
2018-08-08T11:42:58.939Z,1116.00
2018-08-08T11:43:58.960Z,1132.00
2018-08-08T11:44:58.997Z,1212.00
2018-08-08T11:45:59.025Z,1252.00
2018-08-08T11:46:59.161Z,1096.00
2018-08-08T11:47:59.088Z,1288.00
2018-08-08T11:48:59.120Z,1000.00
2018-08-08T11:49:59.148Z,1220.00
2018-08-08T11:50:59.180Z,1212.00
2018-08-08T11:51:59.228Z,1208.00
2018-08-08T11:52:59.244Z,1224.00
2018-08-08T11:53:59.261Z,1220.00
2018-08-08T11:54:59.308Z,1232.00
2018-08-08T11:55:59.333Z,1376.00
2018-08-08T11:56:59.361Z,1288.00
2018-08-08T11:57:59.400Z,1280.00
2018-08-08T11:58:59.440Z,1280.00
2018-08-08T11:59:59.452Z,1392.00
2018-08-08T12:00:59.539Z,1328.00
2018-08-08T12:01:59.565Z,1332.00
2018-08-08T12:02:59.544Z,1364.00
2018-08-08T12:03:59.579Z,1424.00
2018-08-08T12:04:59.618Z,1512.00
2018-08-08T12:05:59.697Z,1448.00
2018-08-08T12:06:59.669Z,1440.00
2018-08-08T12:07:59.694Z,1420.00
2018-08-08T12:08:59.723Z,1380.00
2018-08-08T12:09:59.764Z,1340.00
2018-08-08T12:10:59.799Z,1332.00
2018-08-08T12:11:59.824Z,1244.00
2018-08-08T12:12:59.857Z,1324.00
2018-08-08T12:13:59.928Z,1244.00
2018-08-08T12:14:59.924Z,1136.00
2018-08-08T12:15:59.939Z,1228.00
2018-08-08T12:17:00.014Z,1356.00
2018-08-08T12:18:00.036Z,1212.00
2018-08-08T12:19:00.100Z,1128.00
2018-08-08T12:20:00.085Z,1164.00
2018-08-08T12:21:00.101Z,1096.00
2018-08-08T12:22:00.216Z,1188.00
2018-08-08T12:23:00.165Z,1216.00
2018-08-08T12:24:00.199Z,1196.00
2018-08-08T12:25:00.224Z,1180.00
2018-08-08T12:26:00.290Z,1116.00
2018-08-08T12:27:00.285Z,1020.00
2018-08-08T12:28:00.314Z,1032.00
2018-08-08T12:29:00.399Z,1000.00
2018-08-08T12:30:00.387Z,984.00
2018-08-08T12:31:00.406Z,940.00
2018-08-08T12:32:00.543Z,932.00
2018-08-08T12:33:00.488Z,936.00
2018-08-08T12:34:00.504Z,872.00
2018-08-08T12:35:00.531Z,940.00
2018-08-08T12:36:00.568Z,920.00
2018-08-08T12:37:00.600Z,964.00
2018-08-08T12:38:00.626Z,872.00
2018-08-08T12:39:00.657Z,832.00
2018-08-08T12:40:00.686Z,928.00
2018-08-08T12:41:00.717Z,912.00
2018-08-08T12:42:00.753Z,956.00
2018-08-08T12:43:00.784Z,896.00
2018-08-08T12:44:00.814Z,912.00
2018-08-08T12:45:00.849Z,932.00
2018-08-08T12:46:00.891Z,904.00
2018-08-08T12:47:00.923Z,768.00
2018-08-08T12:48:00.943Z,924.00
2018-08-08T12:49:00.972Z,900.00
2018-08-08T12:50:01.031Z,640.00
2018-08-08T12:51:01.059Z,656.00
2018-08-08T12:52:01.077Z,704.00
2018-08-08T12:53:01.093Z,656.00
2018-08-08T12:54:01.120Z,616.00
2018-08-08T12:55:01.148Z,572.00
2018-08-08T12:56:01.187Z,504.00
2018-08-08T12:57:01.211Z,448.00